Terminal Aerodrome Forecast
Issued by NWS

Home | Current Version | Previous Version | Text Only | Print | Product List | Glossary On
Versions: 1 2 3 4 5 6 7 8 9 10 11 12 13 14
272
FTUS45 KRIW 031120
TAFRKS
TAF
KRKS 031120Z 0312/0412 25020G30KT P6SM SCT070 BKN100
     FM031700 26022G32KT P6SM SCT110 SCT250
     FM040100 25017G26KT P6SM FEW030 SCT110=

USA.gov is the U.S. government's official web portal to all federal, state and local government web resources and services.